createdAt,value
2022-11-27T00:01:22.754Z,101277.38
2022-11-27T00:03:49.698Z,101276.25
2022-11-27T00:06:19.262Z,101273.59
2022-11-27T00:08:46.729Z,101272.88
2022-11-27T00:11:19.483Z,101258.94
2022-11-27T00:13:46.523Z,101249.78
2022-11-27T00:16:13.939Z,101257.75
2022-11-27T00:18:40.828Z,101252.44
2022-11-27T00:21:11.956Z,101255.84
2022-11-27T00:23:38.772Z,101259.34
2022-11-27T00:26:06.404Z,101253.28
2022-11-27T00:28:33.636Z,101247.88
2022-11-27T00:31:06.615Z,101243.06
2022-11-27T00:33:33.539Z,101243.22
2022-11-27T00:36:04.633Z,101230.81
2022-11-27T00:38:34.696Z,101228.72
2022-11-27T00:41:10.919Z,101229.97
2022-11-27T00:43:43.983Z,101227.41
2022-11-27T00:46:16.218Z,101230.25
2022-11-27T00:48:43.726Z,101229.16
2022-11-27T00:51:13.589Z,101223.13
2022-11-27T00:53:40.796Z,101217.00
2022-11-27T00:56:07.973Z,101216.28
2022-11-27T00:58:34.688Z,101216.34
2022-11-27T01:01:05.466Z,101209.44
2022-11-27T01:03:33.201Z,101209.38
2022-11-27T01:06:04.282Z,101209.56
2022-11-27T01:08:31.184Z,101210.03
2022-11-27T01:10:58.887Z,101202.28
2022-11-27T01:13:27.616Z,101200.53
2022-11-27T01:16:03.804Z,101197.53
2022-11-27T01:18:30.843Z,101195.28
2022-11-27T01:20:57.571Z,101199.03
2022-11-27T01:23:24.804Z,101196.59
2022-11-27T01:25:53.686Z,101187.94
2022-11-27T01:28:22.351Z,101190.03
2022-11-27T01:30:49.768Z,101195.09
2022-11-27T01:33:16.784Z,101196.09
2022-11-27T01:35:43.560Z,101191.66
2022-11-27T01:38:10.228Z,101189.78
2022-11-27T01:40:36.928Z,101178.59
2022-11-27T01:43:03.644Z,101183.06
2022-11-27T01:45:30.388Z,101171.94
2022-11-27T01:47:59.436Z,101176.44
2022-11-27T01:50:37.246Z,101168.78
2022-11-27T01:53:15.284Z,101168.72
2022-11-27T01:55:51.309Z,101167.47
2022-11-27T01:58:21.158Z,101164.31
2022-11-27T02:00:47.923Z,101160.19
2022-11-27T02:03:15.870Z,101156.75
2022-11-27T02:05:42.720Z,101154.50
2022-11-27T02:08:12.552Z,101152.19
2022-11-27T02:10:47.684Z,101147.88
2022-11-27T02:13:22.274Z,101152.09
2022-11-27T02:16:17.944Z,101149.66
2022-11-27T02:19:04.055Z,101145.19
2022-11-27T02:21:56.600Z,101152.28
2022-11-27T02:24:48.362Z,101153.50
2022-11-27T02:27:39.230Z,101154.97
2022-11-27T02:30:06.597Z,101147.34
2022-11-27T02:32:40.848Z,101149.38
2022-11-27T02:35:16.648Z,101161.72
2022-11-27T02:37:46.976Z,101153.44
2022-11-27T02:40:36.733Z,101156.41
2022-11-27T02:43:09.772Z,101157.25
2022-11-27T02:45:42.082Z,101152.00
2022-11-27T02:48:09.594Z,101148.84
2022-11-27T02:50:38.316Z,101149.56
2022-11-27T02:53:09.263Z,101148.31
2022-11-27T02:55:38.337Z,101148.53
2022-11-27T02:58:09.853Z,101144.97
2022-11-27T03:00:37.652Z,101147.41
2022-11-27T03:03:06.449Z,101140.63
2022-11-27T03:05:36.069Z,101144.09
2022-11-27T03:08:09.775Z,101147.00
2022-11-27T03:10:57.615Z,101150.53
2022-11-27T03:13:25.008Z,101144.63
2022-11-27T03:16:04.649Z,101147.31
2022-11-27T03:18:41.217Z,101131.78
2022-11-27T03:21:17.341Z,101126.63
2022-11-27T03:23:43.978Z,101120.28
2022-11-27T03:26:10.658Z,101118.44
2022-11-27T03:28:37.406Z,101114.22
2022-11-27T03:31:04.190Z,101115.88
2022-11-27T03:33:30.875Z,101120.16
2022-11-27T03:35:57.636Z,101126.53
2022-11-27T03:38:24.437Z,101127.50
2022-11-27T03:41:03.253Z,101132.06
2022-11-27T03:43:33.604Z,101126.53
2022-11-27T03:46:02.493Z,101129.28
2022-11-27T03:48:38.059Z,101112.66
2022-11-27T03:51:13.509Z,101120.91
2022-11-27T03:54:00.206Z,101118.94
2022-11-27T03:56:40.109Z,101119.09
2022-11-27T03:59:15.368Z,101116.28
2022-11-27T04:01:42.473Z,101115.19
2022-11-27T04:04:09.524Z,101118.59
2022-11-27T04:06:36.356Z,101124.19
2022-11-27T04:09:03.589Z,101127.47
2022-11-27T04:11:30.320Z,101127.66
2022-11-27T04:13:58.789Z,101127.88
2022-11-27T04:16:25.701Z,101138.56
2022-11-27T04:18:52.423Z,101129.88
2022-11-27T04:21:19.261Z,101121.56
2022-11-27T04:23:46.080Z,101116.19
2022-11-27T04:26:12.895Z,101105.91
2022-11-27T04:28:39.622Z,101095.19
2022-11-27T04:31:06.338Z,101098.97
2022-11-27T04:33:33.099Z,101097.31
2022-11-27T04:35:59.765Z,101097.19
2022-11-27T04:38:26.537Z,101097.31
2022-11-27T04:40:53.579Z,101092.72
2022-11-27T04:43:20.576Z,101087.53
2022-11-27T04:45:47.288Z,101089.44
2022-11-27T04:48:14.047Z,101094.56
2022-11-27T04:50:40.720Z,101091.94
2022-11-27T04:53:07.373Z,101085.19
2022-11-27T04:55:35.127Z,101078.28
2022-11-27T04:58:01.884Z,101079.91
2022-11-27T05:00:28.656Z,101084.13
2022-11-27T05:02:55.531Z,101078.28
2022-11-27T05:05:22.264Z,101069.56
2022-11-27T05:07:49.187Z,101074.81
2022-11-27T05:10:16.141Z,101074.50
2022-11-27T05:12:42.952Z,101070.38
2022-11-27T05:15:09.839Z,101072.81
2022-11-27T05:17:36.508Z,101066.94
2022-11-27T05:20:03.634Z,101074.66
2022-11-27T05:22:30.396Z,101073.47
2022-11-27T05:24:57.210Z,101075.97
2022-11-27T05:27:23.982Z,101075.94
2022-11-27T05:29:50.754Z,101066.22
2022-11-27T05:32:17.478Z,101069.53
2022-11-27T05:34:44.158Z,101069.66
2022-11-27T05:37:17.897Z,101064.31
2022-11-27T05:39:46.041Z,101062.06
2022-11-27T05:42:12.765Z,101062.97
2022-11-27T05:44:39.708Z,101060.44
2022-11-27T05:47:06.597Z,101059.31
2022-11-27T05:49:33.623Z,101059.16
2022-11-27T05:52:00.371Z,101068.09
2022-11-27T05:54:27.015Z,101060.28
2022-11-27T05:56:53.785Z,101072.38
2022-11-27T05:59:20.561Z,101061.09
2022-11-27T06:01:49.463Z,101059.31
2022-11-27T06:04:16.483Z,101054.88
2022-11-27T06:06:43.231Z,101052.28
2022-11-27T06:09:13.270Z,101059.44
2022-11-27T06:11:40.783Z,101056.16
2022-11-27T06:14:11.302Z,101054.72
2022-11-27T06:16:38.145Z,101049.16
2022-11-27T06:19:04.914Z,101048.75
2022-11-27T06:21:31.636Z,101053.03
2022-11-27T06:23:58.416Z,101046.81
2022-11-27T06:26:30.010Z,101065.19
2022-11-27T06:28:57.956Z,101061.75
2022-11-27T06:31:30.464Z,101055.03
2022-11-27T06:33:57.717Z,101062.19
2022-11-27T06:36:36.293Z,101057.31
2022-11-27T06:39:04.881Z,101059.00
2022-11-27T06:41:32.004Z,101047.78
2022-11-27T06:43:59.895Z,101045.91
2022-11-27T06:46:27.226Z,101047.16
2022-11-27T06:48:54.798Z,101044.94
2022-11-27T06:51:26.414Z,101050.69
2022-11-27T06:53:53.537Z,101055.03
2022-11-27T06:56:23.838Z,101048.97
2022-11-27T06:58:52.295Z,101052.56
2022-11-27T07:01:19.898Z,101048.28
2022-11-27T07:03:49.091Z,101039.63
2022-11-27T07:06:21.544Z,101040.19
2022-11-27T07:08:48.343Z,101027.41
2022-11-27T07:11:18.524Z,101027.84
2022-11-27T07:13:46.617Z,101024.19
2022-11-27T07:16:13.842Z,101013.06
2022-11-27T07:18:43.077Z,101011.63
2022-11-27T07:21:10.431Z,101011.50
2022-11-27T07:23:37.463Z,101009.75
2022-11-27T07:26:08.706Z,101007.28
2022-11-27T07:28:35.416Z,101002.94
2022-11-27T07:31:02.655Z,101002.53
2022-11-27T07:33:29.363Z,100998.06
2022-11-27T07:36:06.957Z,101000.50
2022-11-27T07:38:33.749Z,100997.88
2022-11-27T07:41:04.166Z,100992.88
2022-11-27T07:43:31.848Z,100993.53
2022-11-27T07:45:58.957Z,100992.56
2022-11-27T07:48:25.880Z,100991.03
2022-11-27T07:50:52.678Z,100988.16
2022-11-27T07:53:19.344Z,100991.09
2022-11-27T07:55:46.111Z,100988.91
2022-11-27T07:58:12.910Z,100982.00
2022-11-27T08:00:39.703Z,100989.13
2022-11-27T08:03:06.419Z,100983.88
2022-11-27T08:05:38.201Z,100974.50
2022-11-27T08:08:05.121Z,100979.59
2022-11-27T08:10:35.251Z,100971.88
2022-11-27T08:13:01.934Z,100971.94
2022-11-27T08:15:28.644Z,100973.78
2022-11-27T08:17:55.317Z,100969.00
2022-11-27T08:20:22.193Z,100977.66
2022-11-27T08:22:49.056Z,100976.22
2022-11-27T08:25:15.785Z,100983.13
2022-11-27T08:27:42.670Z,100981.38
2022-11-27T08:30:10.222Z,100980.84
2022-11-27T08:32:41.176Z,100975.53
2022-11-27T08:35:08.313Z,100969.50
2022-11-27T08:37:35.292Z,100976.94
2022-11-27T08:40:02.376Z,100966.25
2022-11-27T08:42:29.107Z,100981.19
2022-11-27T08:44:55.900Z,100979.13
2022-11-27T08:47:22.550Z,100968.75
2022-11-27T08:49:49.309Z,100972.00
2022-11-27T08:52:16.047Z,100970.22
2022-11-27T08:54:43.177Z,100964.16
2022-11-27T08:57:09.955Z,100963.34
2022-11-27T08:59:36.741Z,100960.88
2022-11-27T09:02:03.586Z,100953.34
2022-11-27T09:04:30.270Z,100945.41
2022-11-27T09:06:58.788Z,100940.88
2022-11-27T09:09:25.802Z,100939.88
2022-11-27T09:11:54.419Z,100939.03
2022-11-27T09:14:21.219Z,100942.47
2022-11-27T09:16:48.039Z,100941.00
2022-11-27T09:19:14.970Z,100942.94
2022-11-27T09:21:41.708Z,100931.44
2022-11-27T09:24:09.096Z,100927.50
2022-11-27T09:26:35.901Z,100925.50
2022-11-27T09:29:02.805Z,100918.00
2022-11-27T09:31:29.608Z,100913.34
2022-11-27T09:33:57.929Z,100918.25
2022-11-27T09:36:25.570Z,100915.53
2022-11-27T09:38:52.645Z,100910.91
2022-11-27T09:41:44.336Z,100903.38
2022-11-27T09:44:16.901Z,100899.69
2022-11-27T09:46:44.701Z,100894.50
2022-11-27T09:49:19.087Z,100893.22
2022-11-27T09:52:11.185Z,100874.81
2022-11-27T09:54:44.088Z,100871.84
2022-11-27T09:57:17.418Z,100867.38
2022-11-27T09:59:49.039Z,100864.44
2022-11-27T10:02:18.623Z,100866.94
2022-11-27T10:05:12.088Z,100854.50
2022-11-27T10:08:16.399Z,100860.81
2022-11-27T10:10:58.171Z,100857.19
2022-11-27T10:13:54.156Z,100858.50
2022-11-27T10:16:31.623Z,100859.19
2022-11-27T10:19:06.148Z,100853.72
2022-11-27T10:21:46.377Z,100857.91
2022-11-27T10:24:57.972Z,100863.03
2022-11-27T10:27:33.111Z,100864.59
2022-11-27T10:30:01.253Z,100853.00
2022-11-27T10:32:54.496Z,100844.03
2022-11-27T10:35:19.577Z,100841.16
2022-11-27T10:37:50.539Z,100840.94
2022-11-27T10:41:34.342Z,100836.00
2022-11-27T10:44:21.622Z,100829.13
2022-11-27T10:46:49.079Z,100812.31
2022-11-27T10:49:15.865Z,100808.63
2022-11-27T10:51:42.777Z,100803.91
2022-11-27T10:54:19.331Z,100801.91
2022-11-27T10:56:56.170Z,100789.59
2022-11-27T10:59:32.978Z,100784.00
2022-11-27T11:02:03.235Z,100777.56
2022-11-27T11:04:39.233Z,100774.78
2022-11-27T11:07:24.836Z,100771.31
2022-11-27T11:09:52.069Z,100766.50
2022-11-27T11:12:21.304Z,100751.31
2022-11-27T11:14:59.369Z,100748.56
2022-11-27T11:17:37.117Z,100739.53
2022-11-27T11:20:32.909Z,100740.53
2022-11-27T11:23:00.040Z,100732.84
2022-11-27T11:25:26.842Z,100727.31
2022-11-27T11:27:53.609Z,100722.75
2022-11-27T11:30:28.767Z,100711.19
2022-11-27T11:33:02.398Z,100710.00
2022-11-27T11:35:32.760Z,100700.66
2022-11-27T11:37:59.519Z,100684.41
2022-11-27T11:40:30.348Z,100682.41
2022-11-27T11:43:00.854Z,100678.91
2022-11-27T11:45:33.162Z,100684.03
2022-11-27T11:48:03.449Z,100669.81
2022-11-27T11:50:34.777Z,100667.78
2022-11-27T11:53:36.808Z,100669.56
2022-11-27T11:56:15.753Z,100670.06
2022-11-27T11:59:04.141Z,100668.28
2022-11-27T12:01:54.138Z,100662.56
2022-11-27T12:04:57.356Z,100656.59
2022-11-27T12:07:52.380Z,100646.84
2022-11-27T12:10:31.340Z,100639.50
2022-11-27T12:13:06.878Z,100631.41
2022-11-27T12:15:43.866Z,100640.28
2022-11-27T12:18:24.647Z,100629.53
2022-11-27T12:21:10.144Z,100618.91
2022-11-27T12:24:03.976Z,100618.91
2022-11-27T12:27:08.999Z,100614.34
2022-11-27T12:29:47.130Z,100599.94
2022-11-27T12:32:25.574Z,100597.13
2022-11-27T12:35:27.433Z,100601.81
2022-11-27T12:38:02.675Z,100598.84
2022-11-27T12:40:58.437Z,100597.88
2022-11-27T12:43:33.127Z,100592.63
2022-11-27T12:46:04.993Z,100590.81
2022-11-27T12:48:45.448Z,100586.50
2022-11-27T12:51:27.676Z,100587.44
2022-11-27T12:54:06.619Z,100584.69
2022-11-27T12:56:42.764Z,100582.63
2022-11-27T12:59:33.670Z,100577.47
2022-11-27T13:02:09.715Z,100565.03
2022-11-27T13:04:47.737Z,100573.69
2022-11-27T13:07:20.565Z,100555.81
2022-11-27T13:09:51.250Z,100560.25
2022-11-27T13:12:24.352Z,100563.66
2022-11-27T13:15:04.145Z,100554.88
2022-11-27T13:17:39.765Z,100558.19
2022-11-27T13:20:14.975Z,100543.19
2022-11-27T13:22:42.700Z,100539.44
2022-11-27T13:25:14.656Z,100536.03
2022-11-27T13:27:45.114Z,100533.31
2022-11-27T13:30:20.392Z,100525.50
2022-11-27T13:32:53.915Z,100522.00
2022-11-27T13:35:28.082Z,100517.38
2022-11-27T13:37:59.046Z,100520.88
2022-11-27T13:40:36.952Z,100520.13
2022-11-27T13:43:06.539Z,100516.53
2022-11-27T13:45:37.102Z,100515.78
2022-11-27T13:48:23.599Z,100514.38
2022-11-27T13:50:50.383Z,100504.31
2022-11-27T13:53:17.179Z,100501.66
2022-11-27T13:55:54.463Z,100489.41
2022-11-27T13:58:35.882Z,100486.75
2022-11-27T14:01:20.170Z,100486.88
2022-11-27T14:03:47.664Z,100491.75
2022-11-27T14:06:23.120Z,100486.47
2022-11-27T14:08:56.079Z,100486.56
2022-11-27T14:11:34.884Z,100480.63
2022-11-27T14:14:03.624Z,100478.66
2022-11-27T14:16:35.294Z,100471.69
2022-11-27T14:19:04.396Z,100469.81
2022-11-27T14:21:38.256Z,100475.16
2022-11-27T14:24:25.504Z,100465.94
2022-11-27T14:26:53.578Z,100464.72
2022-11-27T14:29:22.006Z,100466.31
2022-11-27T14:32:00.381Z,100456.97
2022-11-27T14:34:34.127Z,100446.34
2022-11-27T14:37:01.404Z,100442.66
2022-11-27T14:39:36.910Z,100438.44
2022-11-27T14:42:05.794Z,100433.06
2022-11-27T14:44:32.884Z,100422.41
2022-11-27T14:47:02.775Z,100419.88
2022-11-27T14:49:30.897Z,100407.59
2022-11-27T14:52:07.811Z,100405.25
2022-11-27T14:54:37.988Z,100392.75
2022-11-27T14:57:05.801Z,100386.63
2022-11-27T14:59:32.914Z,100378.72
2022-11-27T15:02:03.033Z,100377.84
2022-11-27T15:04:35.734Z,100364.84
2022-11-27T15:07:44.039Z,100371.91
2022-11-27T15:10:36.264Z,100368.72
2022-11-27T15:13:04.249Z,100362.19
2022-11-27T15:15:34.758Z,100363.16
2022-11-27T15:18:06.402Z,100360.53
2022-11-27T15:20:44.241Z,100363.25
2022-11-27T15:23:24.332Z,100360.81
2022-11-27T15:25:59.693Z,100354.69
2022-11-27T15:28:32.232Z,100358.94
2022-11-27T15:30:58.934Z,100360.59
2022-11-27T15:33:32.494Z,100357.88
2022-11-27T15:36:20.708Z,100350.34
2022-11-27T15:38:50.693Z,100358.63
2022-11-27T15:41:22.788Z,100364.84
2022-11-27T15:43:49.597Z,100362.19
2022-11-27T15:46:23.853Z,100359.56
2022-11-27T15:48:51.011Z,100360.31
2022-11-27T15:51:17.902Z,100352.22
2022-11-27T15:53:44.587Z,100357.41
2022-11-27T15:56:11.268Z,100359.94
2022-11-27T15:58:38.152Z,100354.66
2022-11-27T16:01:06.323Z,100352.00
2022-11-27T16:03:33.222Z,100343.25
2022-11-27T16:06:04.846Z,100330.25
2022-11-27T16:08:31.748Z,100335.44
2022-11-27T16:11:03.529Z,100332.97
2022-11-27T16:13:30.350Z,100339.97
2022-11-27T16:16:08.174Z,100344.56
2022-11-27T16:18:35.044Z,100340.72
2022-11-27T16:21:05.988Z,100338.81
2022-11-27T16:23:35.328Z,100336.22
2022-11-27T16:26:02.092Z,100340.91
2022-11-27T16:28:30.106Z,100333.66
2022-11-27T16:30:59.362Z,100334.41
2022-11-27T16:33:27.388Z,100333.44
2022-11-27T16:35:54.181Z,100336.09
2022-11-27T16:38:21.143Z,100328.09
2022-11-27T16:40:49.294Z,100323.75
2022-11-27T16:43:16.429Z,100333.38
2022-11-27T16:45:43.974Z,100321.94
2022-11-27T16:48:10.864Z,100324.59
2022-11-27T16:50:37.773Z,100321.09
2022-11-27T16:53:04.543Z,100314.91
2022-11-27T16:55:33.144Z,100313.94
2022-11-27T16:58:00.023Z,100311.31
2022-11-27T17:00:28.615Z,100305.06
2022-11-27T17:02:55.661Z,100287.47
2022-11-27T17:05:22.425Z,100291.03
2022-11-27T17:07:49.152Z,100281.53
2022-11-27T17:10:16.022Z,100276.25
2022-11-27T17:12:43.795Z,100270.97
2022-11-27T17:15:10.773Z,100268.44
2022-11-27T17:17:40.225Z,100270.13
2022-11-27T17:20:08.095Z,100266.53
2022-11-27T17:22:34.925Z,100255.16
2022-11-27T17:25:02.368Z,100255.97
2022-11-27T17:27:29.361Z,100257.78
2022-11-27T17:29:56.216Z,100257.78
2022-11-27T17:32:24.631Z,100245.44
2022-11-27T17:34:51.408Z,100245.44
2022-11-27T17:37:18.194Z,100245.44
2022-11-27T17:39:45.064Z,100253.47
2022-11-27T17:42:14.636Z,100245.84
2022-11-27T17:44:43.899Z,100247.63
2022-11-27T17:47:10.777Z,100238.13
2022-11-27T17:49:38.573Z,100236.25
2022-11-27T17:52:06.675Z,100238.88
2022-11-27T17:54:37.279Z,100249.44
2022-11-27T17:57:05.285Z,100247.09
2022-11-27T17:59:32.185Z,100239.25
2022-11-27T18:01:59.602Z,100232.94
2022-11-27T18:04:30.679Z,100238.22
2022-11-27T18:06:58.474Z,100232.03
2022-11-27T18:09:25.177Z,100225.16
2022-11-27T18:11:54.884Z,100224.47
2022-11-27T18:14:22.081Z,100236.75
2022-11-27T18:16:49.011Z,100237.66
2022-11-27T18:19:15.924Z,100229.56
2022-11-27T18:21:42.745Z,100234.81
2022-11-27T18:24:25.474Z,100226.91
2022-11-27T18:27:09.508Z,100221.75
2022-11-27T18:29:38.278Z,100213.72
2022-11-27T18:32:05.525Z,100206.78
2022-11-27T18:34:32.404Z,100204.34
2022-11-27T18:37:00.671Z,100206.13
2022-11-27T18:39:27.635Z,100197.25
2022-11-27T18:41:54.287Z,100187.84
2022-11-27T18:44:21.030Z,100177.31
2022-11-27T18:46:47.747Z,100173.81
2022-11-27T18:49:14.454Z,100182.78
2022-11-27T18:51:41.372Z,100197.75
2022-11-27T18:54:08.350Z,100205.69
2022-11-27T18:56:37.052Z,100200.59
2022-11-27T18:59:05.688Z,100197.97
2022-11-27T19:01:41.282Z,100209.34
2022-11-27T19:04:09.226Z,100212.19
2022-11-27T19:06:36.835Z,100208.59
2022-11-27T19:09:04.164Z,100206.81
2022-11-27T19:11:32.573Z,100193.63
2022-11-27T19:13:59.769Z,100190.97
2022-11-27T19:16:32.525Z,100189.50
2022-11-27T19:19:00.816Z,100186.88
2022-11-27T19:21:29.372Z,100173.91
2022-11-27T19:23:57.767Z,100183.69
2022-11-27T19:26:26.525Z,100171.25
2022-11-27T19:28:55.915Z,100163.63
2022-11-27T19:31:23.695Z,100169.09
2022-11-27T19:33:52.113Z,100160.63
2022-11-27T19:36:19.552Z,100169.41
2022-11-27T19:38:46.400Z,100168.44
2022-11-27T19:41:16.187Z,100166.03
2022-11-27T19:43:44.357Z,100164.22
2022-11-27T19:46:20.897Z,100155.00
2022-11-27T19:48:48.001Z,100158.41
2022-11-27T19:51:15.402Z,100151.88
2022-11-27T19:53:42.637Z,100155.47
2022-11-27T19:56:10.080Z,100151.25
2022-11-27T19:58:37.697Z,100149.38
2022-11-27T20:01:09.521Z,100145.00
2022-11-27T20:03:36.307Z,100144.38
2022-11-27T20:06:11.260Z,100147.09
2022-11-27T20:08:39.278Z,100134.75
2022-11-27T20:11:09.985Z,100133.84
2022-11-27T20:13:36.832Z,100134.69
2022-11-27T20:16:08.116Z,100133.91
2022-11-27T20:18:35.410Z,100140.91
2022-11-27T20:21:17.125Z,100135.13
2022-11-27T20:23:45.216Z,100123.59
2022-11-27T20:26:15.371Z,100120.00
2022-11-27T20:28:42.685Z,100127.91
2022-11-27T20:31:14.727Z,100120.94
2022-11-27T20:33:41.540Z,100118.94
2022-11-27T20:36:16.913Z,100115.84
2022-11-27T20:38:43.875Z,100114.84
2022-11-27T20:41:12.918Z,100111.25
2022-11-27T20:43:40.406Z,100102.50
2022-11-27T20:46:10.721Z,100105.19
2022-11-27T20:48:38.780Z,100100.31
2022-11-27T20:51:10.335Z,100098.53
2022-11-27T20:53:38.522Z,100097.78
2022-11-27T20:56:07.037Z,100091.66
2022-11-27T20:58:38.623Z,100090.63
2022-11-27T21:01:26.420Z,100079.75
2022-11-27T21:03:55.153Z,100084.94
2022-11-27T21:06:25.669Z,100086.59
2022-11-27T21:08:53.586Z,100081.41
2022-11-27T21:11:25.619Z,100088.91
2022-11-27T21:13:56.120Z,100098.97
2022-11-27T21:16:24.621Z,100102.44
2022-11-27T21:18:59.427Z,100090.13
2022-11-27T21:21:29.537Z,100085.78
2022-11-27T21:23:56.844Z,100092.94
2022-11-27T21:26:24.083Z,100091.91
2022-11-27T21:28:51.318Z,100090.13
2022-11-27T21:31:20.981Z,100090.63
2022-11-27T21:33:56.969Z,100103.69
2022-11-27T21:36:29.579Z,100098.22
2022-11-27T21:39:00.025Z,100083.91
2022-11-27T21:41:28.021Z,100075.94
2022-11-27T21:43:56.705Z,100081.56
2022-11-27T21:46:24.452Z,100072.19
2022-11-27T21:48:52.925Z,100042.06
2022-11-27T21:51:21.461Z,100036.22
2022-11-27T21:53:49.632Z,100031.63
2022-11-27T21:56:18.164Z,100010.56
2022-11-27T21:58:44.981Z,100000.75
2022-11-27T22:01:14.923Z,100037.53
2022-11-27T22:03:44.296Z,100064.50
2022-11-27T22:06:13.388Z,100055.78
2022-11-27T22:08:44.121Z,100045.78
2022-11-27T22:11:16.515Z,100063.47
2022-11-27T22:13:43.484Z,100077.41
2022-11-27T22:16:19.631Z,100059.25
2022-11-27T22:18:48.260Z,100065.06
2022-11-27T22:21:16.030Z,100063.59
2022-11-27T22:23:43.219Z,100062.25
2022-11-27T22:26:13.079Z,100048.22
2022-11-27T22:28:40.417Z,100052.94
2022-11-27T22:31:22.425Z,100053.44
2022-11-27T22:33:49.384Z,100045.34
2022-11-27T22:36:16.220Z,100043.00
2022-11-27T22:38:44.340Z,100034.91
2022-11-27T22:41:12.042Z,100018.88
2022-11-27T22:43:39.285Z,100010.06
2022-11-27T22:46:07.638Z,99981.78
2022-11-27T22:48:34.740Z,99990.56
2022-11-27T22:51:01.581Z,99992.34
2022-11-27T22:53:28.908Z,99988.66
2022-11-27T22:55:55.815Z,99987.56
2022-11-27T22:58:22.731Z,99984.81
2022-11-27T23:00:56.659Z,99983.97
2022-11-27T23:03:23.623Z,99975.09
2022-11-27T23:05:50.548Z,99969.97
2022-11-27T23:08:19.035Z,99973.22
2022-11-27T23:10:47.466Z,99969.00
2022-11-27T23:13:14.747Z,99955.06
2022-11-27T23:15:42.042Z,99955.38
2022-11-27T23:18:08.823Z,99966.13
2022-11-27T23:20:40.418Z,99957.91
2022-11-27T23:23:07.182Z,99945.59
2022-11-27T23:25:33.810Z,99935.72
2022-11-27T23:28:00.560Z,99922.34
2022-11-27T23:30:27.327Z,99932.88
2022-11-27T23:32:54.081Z,99936.44
2022-11-27T23:35:20.945Z,99921.50
2022-11-27T23:37:47.897Z,99925.06
2022-11-27T23:40:14.985Z,99921.50
2022-11-27T23:42:42.767Z,99930.78
2022-11-27T23:45:10.116Z,99924.75
2022-11-27T23:47:36.879Z,99920.34
2022-11-27T23:50:05.346Z,99924.84
2022-11-27T23:52:31.971Z,99923.81
2022-11-27T23:54:58.755Z,99920.53
2022-11-27T23:57:25.386Z,99916.84
2022-11-27T23:59:52.084Z,99914.31
